This is the latest recevied weather packets stored in our database for station/object K5NAN. If no packets are shown the sender has not sent any weather packets the latest 1 day(s).
| Time | Temp. | Humidity | Pressure | Rain* | Wind** | Luminosity | Snow |
|---|---|---|---|---|---|---|---|
| 1778085355 | 12.22° C | 92% | 1013.4 hPa | 0 mm | - | 282 W/m² | - |
| 1778085052 | 11.67° C | 92% | 1013.3 hPa | 0 mm | - | 302 W/m² | - |
| 1778084143 | 11.67° C | 91% | 1013.1 hPa | 1.78 mm | - | 321 W/m² | - |
| 1778083234 | 11.11° C | 88% | 1013.9 hPa | 8.89 mm | - | 86 W/m² | - |
| 1778081521 | 12.22° C | 84% | 1013.6 hPa | 0 mm | - | 82 W/m² | - |
| 1778080915 | 12.22° C | 84% | 1013.3 hPa | 0 mm | - | 85 W/m² | - |
| 1778080310 | 12.22° C | 84% | 1013.1 hPa | 0 mm | - | 55 W/m² | - |
| 1778080007 | 12.22° C | 84% | 1012.8 hPa | 0 mm | - | 64 W/m² | - |
| 1778079704 | 11.67° C | 84% | 1012.6 hPa | 0 mm | - | 82 W/m² | - |
| 1778079401 | 11.67° C | 84% | 1013.4 hPa | 0 mm | - | 61 W/m² | - |
| 1778076981 | 11.67° C | 85% | 1012.4 hPa | 0 mm | - | 73 W/m² | - |
| 1778076679 | 11.67° C | 85% | 1012.5 hPa | 0 mm | - | 72 W/m² | - |
| 1778076376 | 11.67° C | 85% | 1012.2 hPa | 0 mm | - | 68 W/m² | - |
| 1778075466 | 11.67° C | 86% | 1012.2 hPa | 0 mm | - | 62 W/m² | - |
| 1778074253 | 11.11° C | 86% | 1012 hPa | 0 mm | - | 35 W/m² | - |
| 1778071831 | 11.11° C | 87% | 1011.7 hPa | 0 mm | - | 23 W/m² | - |
| 1778071226 | 11.11° C | 88% | 1011.8 hPa | 0 mm | - | 22 W/m² | - |
| 1778070924 | 11.11° C | 87% | 1011.6 hPa | 0 mm | - | 20 W/m² | - |
| 1778070318 | 11.11° C | 87% | 1011.7 hPa | 0 mm | - | 20 W/m² | - |
| 1778069108 | 11.11° C | 85% | 1011.3 hPa | 0 mm | - | 8 W/m² | - |
| 1778068201 | 11.11° C | 84% | 1010.7 hPa | 0 mm | - | 5 W/m² | - |
| 1778067596 | 11.67° C | 83% | 1010.9 hPa | 0 mm | - | 1 W/m² | - |
| 1778066990 | 11.67° C | 82% | 1010.6 hPa | 0 mm | - | 0 W/m² | - |
| 1778066083 | 11.67° C | 82% | 1010.6 hPa | 0 mm | - | 0 W/m² | - |
| 1778064870 | 11.67° C | 81% | 1010.1 hPa | 0 mm | - | 0 W/m² | - |
* Rain latest hour (hover to see other rain measurements)
** Current wind speed in m/s (hover to see current wind gust speed)